Time;durP1;ratioP1;P1;durP2;ratioP2;P2;SDS_P1;SDS_P2;PMS_P1;PMS_P2;Temp;Humidity;BMP_temperature;BMP_pressure;BME280_temperature;BME280_humidity;BME280_pressure;Samples;Min_cycle;Max_cycle;Signal;HPM_P1;HPM_P2
2023/02/28 00:01:33;;;;;;;8.32;4.38;;;5.90;99.90;;;;;;6037037;23;92843;-76
2023/02/28 00:04:00;;;;;;;7.70;4.35;;;5.90;99.90;;;;;;6036821;23;92467;-76
2023/02/28 00:06:28;;;;;;;9.95;5.50;;;5.90;99.90;;;;;;5987520;23;92502;-76
2023/02/28 00:08:55;;;;;;;8.27;6.00;;;5.90;99.90;;;;;;6035185;23;95767;-76
2023/02/28 00:11:22;;;;;;;9.93;5.82;;;5.90;99.90;;;;;;5987902;23;93023;-76
2023/02/28 00:13:49;;;;;;;8.18;4.90;;;5.90;99.90;;;;;;6011654;23;92508;-76
2023/02/28 00:16:21;;;;;;;8.80;4.18;;;6.00;99.90;;;;;;6036620;23;92446;-76
2023/02/28 00:18:49;;;;;;;6.43;4.47;;;6.00;99.90;;;;;;6009409;23;98083;-76
2023/02/28 00:21:18;;;;;;;10.00;4.32;;;6.00;99.90;;;;;;5987312;23;95180;-76
2023/02/28 00:23:45;;;;;;;6.35;4.32;;;6.00;99.90;;;;;;6036786;23;92738;-76
2023/02/28 00:26:12;;;;;;;8.13;4.18;;;6.10;99.90;;;;;;6036817;23;92414;-76
2023/02/28 00:28:43;;;;;;;9.57;4.18;;;6.10;99.90;;;;;;6036955;23;93203;-76
2023/02/28 00:31:10;;;;;;;11.93;4.57;;;6.10;99.90;;;;;;6011116;23;92856;-77
2023/02/28 00:33:37;;;;;;;6.72;4.00;;;6.10;99.90;;;;;;6035551;23;92413;-77
2023/02/28 00:36:07;;;;;;;8.27;4.68;;;6.20;99.90;;;;;;6037348;23;92165;-77
2023/02/28 00:38:36;;;;;;;10.30;4.50;;;6.10;99.90;;;;;;6035480;23;96174;-77
2023/02/28 00:41:06;;;;;;;10.15;3.95;;;6.10;99.90;;;;;;6010494;23;95857;-77
2023/02/28 00:43:38;;;;;;;7.60;4.55;;;6.20;99.90;;;;;;6009752;23;94871;-76
2023/02/28 00:46:05;;;;;;;9.75;3.97;;;6.20;99.90;;;;;;6010562;23;92506;-76
2023/02/28 00:48:33;;;;;;;5.70;4.07;;;6.10;99.90;;;;;;6010622;23;94070;-76
2023/02/28 00:51:00;;;;;;;8.13;4.50;;;6.10;99.90;;;;;;6036528;23;93086;-76
2023/02/28 00:53:27;;;;;;;6.15;3.65;;;6.10;99.90;;;;;;6036789;23;92293;-76
2023/02/28 00:55:56;;;;;;;9.55;4.30;;;6.10;99.90;;;;;;6036777;23;92495;-76
2023/02/28 00:58:25;;;;;;;10.13;4.40;;;6.10;99.90;;;;;;6010635;23;95783;-76
2023/02/28 01:00:53;;;;;;;10.70;3.90;;;6.10;99.90;;;;;;5987559;23;95729;-76
2023/02/28 01:03:22;;;;;;;7.40;3.60;;;6.10;99.90;;;;;;6034289;23;92520;-76
2023/02/28 01:05:49;;;;;;;9.48;4.20;;;6.20;99.90;;;;;;6010600;23;92470;-76
2023/02/28 01:08:16;;;;;;;10.70;4.03;;;6.20;99.90;;;;;;6009039;23;98113;-76
2023/02/28 01:10:43;;;;;;;8.00;3.83;;;6.20;99.90;;;;;;6012269;23;95566;-76
2023/02/28 01:13:12;;;;;;;8.27;3.80;;;6.20;99.90;;;;;;6011963;23;92926;-76
2023/02/28 01:15:44;;;;;;;7.05;4.20;;;6.20;99.90;;;;;;6011885;23;92447;-76
2023/02/28 01:18:11;;;;;;;6.80;4.43;;;6.20;99.90;;;;;;6060030;23;96138;-76
2023/02/28 01:20:39;;;;;;;6.30;3.90;;;6.20;99.90;;;;;;6012024;23;95925;-76
2023/02/28 01:23:06;;;;;;;10.55;4.07;;;6.10;99.90;;;;;;6036037;23;92367;-76
2023/02/28 01:25:37;;;;;;;7.25;4.03;;;6.10;99.90;;;;;;6012336;23;91934;-76
2023/02/28 01:28:05;;;;;;;5.70;3.80;;;6.20;99.90;;;;;;6011939;23;95835;-76
2023/02/28 01:30:33;;;;;;;6.88;3.90;;;6.10;99.90;;;;;;6037599;23;92923;-76
2023/02/28 01:33:00;;;;;;;9.13;4.20;;;6.10;99.90;;;;;;6010467;23;94982;-76
2023/02/28 01:35:27;;;;;;;7.00;3.90;;;6.20;99.90;;;;;;6037567;23;92382;-76
2023/02/28 01:37:54;;;;;;;6.65;3.83;;;6.20;99.90;;;;;;6060187;23;95740;-76
2023/02/28 01:40:26;;;;;;;3.85;3.50;;;6.20;99.90;;;;;;5988828;23;95460;-76
2023/02/28 01:42:53;;;;;;;5.35;4.10;;;6.20;99.90;;;;;;6037786;23;92417;-76
2023/02/28 01:45:29;;;;;;;7.22;4.65;;;6.10;99.90;;;;;;6035907;23;92914;-76
2023/02/28 01:48:07;;;;;;;7.03;5.05;;;6.20;99.90;;;;;;6036061;23;93238;-76
2023/02/28 01:50:43;;;;;;;7.45;4.40;;;6.20;99.90;;;;;;6012667;23;92988;-76
2023/02/28 01:53:17;;;;;;;6.60;4.65;;;6.20;99.90;;;;;;6011762;23;92615;-76
2023/02/28 01:55:48;;;;;;;7.05;4.45;;;6.20;99.90;;;;;;6037782;23;92416;-76
2023/02/28 01:58:15;;;;;;;10.88;4.80;;;6.20;99.90;;;;;;6010364;23;95649;-76
2023/02/28 02:00:42;;;;;;;9.82;5.40;;;6.20;99.90;;;;;;5987637;23;97814;-76
2023/02/28 02:03:18;;;;;;;10.70;5.32;;;6.20;99.90;;;;;;6012239;23;92541;-76
2023/02/28 02:05:47;;;;;;;8.20;5.05;;;6.20;99.90;;;;;;6037811;23;92969;-76
2023/02/28 02:08:21;;;;;;;8.25;5.07;;;6.20;99.90;;;;;;6011243;23;95822;-76
2023/02/28 02:11:00;;;;;;;7.65;4.90;;;6.20;99.90;;;;;;6011363;23;95751;-76
2023/02/28 02:13:59;;;;;;;8.18;4.78;;;6.20;99.90;;;;;;6011692;23;92499;-76
2023/02/28 02:16:40;;;;;;;7.65;4.45;;;6.20;99.90;;;;;;6012387;23;91732;-76
2023/02/28 02:19:25;;;;;;;7.65;4.53;;;6.10;99.90;;;;;;6011120;23;94305;-76
2023/02/28 02:22:24;;;;;;;8.45;4.22;;;6.10;99.90;;;;;;6010986;23;93977;-76
2023/02/28 02:25:10;;;;;;;6.63;4.18;;;6.10;99.90;;;;;;5959112;23;95500;-76
2023/02/28 02:27:53;;;;;;;5.63;4.00;;;6.00;99.90;;;;;;6037386;23;92446;-76
2023/02/28 02:30:35;;;;;;;7.13;4.38;;;6.00;99.90;;;;;;5987791;23;95578;-76
2023/02/28 02:33:27;;;;;;;5.45;4.13;;;6.00;99.90;;;;;;6037366;23;93291;-76
2023/02/28 02:36:12;;;;;;;6.00;4.15;;;6.00;99.90;;;;;;6036137;23;92447;-76
2023/02/28 02:39:05;;;;;;;6.97;4.72;;;6.00;99.90;;;;;;6011540;23;92525;-76
2023/02/28 02:41:44;;;;;;;5.70;4.18;;;6.00;99.90;;;;;;6011702;23;96360;-76
2023/02/28 02:44:24;;;;;;;7.20;5.03;;;6.00;99.90;;;;;;6037859;23;91767;-76
2023/02/28 02:46:57;;;;;;;5.53;4.30;;;6.00;99.90;;;;;;6036062;23;93276;-76
2023/02/28 02:49:32;;;;;;;6.20;4.28;;;5.90;99.90;;;;;;6037449;23;92490;-76
2023/02/28 02:52:13;;;;;;;5.93;4.60;;;5.90;99.90;;;;;;6035728;23;95681;-76
2023/02/28 02:54:47;;;;;;;5.15;3.58;;;6.00;99.90;;;;;;6011274;23;98130;-76
2023/02/28 02:57:30;;;;;;;6.30;4.40;;;5.90;99.90;;;;;;6011756;23;92510;-76
2023/02/28 02:59:58;;;;;;;5.43;4.22;;;5.90;99.90;;;;;;6035960;23;92549;-76
2023/02/28 03:02:27;;;;;;;5.97;4.32;;;5.90;99.90;;;;;;6011176;23;95606;-76
2023/02/28 03:05:01;;;;;;;9.90;5.15;;;5.90;99.90;;;;;;6011532;23;95498;-76
2023/02/28 03:07:28;;;;;;;6.22;4.75;;;5.90;99.90;;;;;;5987637;23;92524;-76
2023/02/28 03:09:57;;;;;;;6.50;4.80;;;5.90;99.90;;;;;;6011921;23;91763;-76
2023/02/28 03:12:40;;;;;;;6.82;4.75;;;5.90;99.90;;;;;;6036942;23;93108;-76
2023/02/28 03:15:20;;;;;;;7.50;4.65;;;5.90;99.90;;;;;;6011474;23;95423;-76
2023/02/28 03:17:59;;;;;;;5.78;5.13;;;5.90;99.90;;;;;;6010326;23;94817;-76
2023/02/28 03:20:45;;;;;;;9.75;5.57;;;5.90;99.90;;;;;;6036603;23;92392;-76
2023/02/28 03:23:22;;;;;;;8.65;5.72;;;5.90;99.90;;;;;;6037170;23;93213;-76
2023/02/28 03:26:13;;;;;;;10.93;5.55;;;5.90;99.90;;;;;;6037049;23;92973;-76
2023/02/28 03:28:56;;;;;;;8.93;5.50;;;6.00;99.90;;;;;;6011795;23;92515;-76
2023/02/28 03:31:31;;;;;;;9.18;6.50;;;5.90;99.90;;;;;;6036792;23;92475;-76
2023/02/28 03:34:12;;;;;;;10.93;6.05;;;5.90;99.90;;;;;;6011499;23;95675;-76
2023/02/28 03:36:43;;;;;;;8.10;5.68;;;5.90;99.90;;;;;;6011907;23;92928;-76
2023/02/28 03:39:26;;;;;;;7.28;6.00;;;5.90;99.90;;;;;;6037403;23;92397;-76
2023/02/28 03:42:00;;;;;;;9.52;5.57;;;6.00;99.90;;;;;;6011705;23;92407;-76
2023/02/28 03:44:52;;;;;;;9.95;5.70;;;6.00;99.90;;;;;;6009780;23;98322;-76
2023/02/28 03:47:37;;;;;;;8.93;6.00;;;6.00;99.90;;;;;;6037053;23;95317;-76
2023/02/28 03:50:10;;;;;;;9.80;5.10;;;6.00;99.90;;;;;;6037386;23;92421;-76
2023/02/28 03:52:52;;;;;;;12.75;5.68;;;6.00;99.90;;;;;;6037042;23;92418;-76
2023/02/28 03:55:21;;;;;;;8.77;5.60;;;6.00;99.90;;;;;;6037087;23;93510;-76
2023/02/28 03:58:29;;;;;;;9.80;6.57;;;6.00;99.90;;;;;;6036679;23;92822;-76
2023/02/28 04:01:07;;;;;;;8.52;5.18;;;6.00;99.90;;;;;;5999444;23;92645;-76
2023/02/28 04:03:36;;;;;;;9.00;5.70;;;6.00;99.90;;;;;;6011999;23;91625;-76
2023/02/28 04:06:05;;;;;;;8.77;5.68;;;6.00;99.90;;;;;;6036846;23;92414;-76
2023/02/28 04:08:33;;;;;;;10.73;6.65;;;6.00;99.90;;;;;;6036606;23;93040;-76
2023/02/28 04:11:37;;;;;;;11.23;6.05;;;6.00;99.90;;;;;;6009987;23;95260;-76
2023/02/28 04:14:05;;;;;;;6.57;5.65;;;6.10;99.90;;;;;;6037236;23;92289;-76
2023/02/28 04:16:34;;;;;;;8.35;6.03;;;6.00;99.90;;;;;;6011461;23;93191;-76
2023/02/28 04:19:06;;;;;;;9.00;5.30;;;6.00;99.90;;;;;;5987889;23;92633;-76
2023/02/28 04:21:38;;;;;;;9.75;6.47;;;6.00;99.90;;;;;;6011618;23;92509;-76
2023/02/28 04:24:07;;;;;;;8.63;5.78;;;6.00;99.90;;;;;;6037012;23;92526;-76
2023/02/28 04:26:36;;;;;;;11.65;6.25;;;6.00;99.90;;;;;;6036500;23;93244;-76
2023/02/28 04:29:05;;;;;;;9.70;6.80;;;6.00;99.90;;;;;;6011751;23;92888;-76
2023/02/28 04:31:33;;;;;;;9.25;6.38;;;6.00;99.90;;;;;;6036778;23;92462;-76
2023/02/28 04:34:00;;;;;;;8.70;6.13;;;6.00;99.90;;;;;;6010984;23;92581;-76
2023/02/28 04:36:27;;;;;;;9.90;6.10;;;6.00;99.90;;;;;;6009403;23;98208;-76
2023/02/28 04:38:54;;;;;;;9.23;6.30;;;6.00;99.90;;;;;;6010505;23;97801;-76
2023/02/28 04:41:22;;;;;;;9.75;6.18;;;6.00;99.90;;;;;;6011567;23;92560;-76
2023/02/28 04:43:52;;;;;;;8.05;5.50;;;6.00;99.90;;;;;;6011652;23;92734;-76
2023/02/28 04:46:19;;;;;;;7.18;6.05;;;6.00;99.90;;;;;;6037641;23;92885;-76
2023/02/28 04:48:46;;;;;;;6.32;5.13;;;6.00;99.90;;;;;;6037627;23;92855;-76
2023/02/28 04:51:15;;;;;;;9.10;5.75;;;6.00;99.90;;;;;;5988911;23;92500;-76
2023/02/28 04:53:43;;;;;;;10.38;6.05;;;6.00;99.90;;;;;;6012851;23;92315;-76
2023/02/28 04:56:13;;;;;;;8.85;6.00;;;6.00;99.90;;;;;;6037717;23;93016;-76
2023/02/28 04:58:40;;;;;;;10.20;5.93;;;6.00;99.90;;;;;;6011846;23;95643;-76
2023/02/28 05:01:19;;;;;;;9.07;6.07;;;6.00;99.90;;;;;;6036565;23;94703;-76
2023/02/28 05:03:46;;;;;;;8.23;6.03;;;6.00;99.90;;;;;;6037954;23;92881;-76
2023/02/28 05:06:14;;;;;;;8.00;5.85;;;5.90;99.90;;;;;;6037594;23;93111;-76
2023/02/28 05:08:41;;;;;;;7.78;5.45;;;5.90;99.90;;;;;;6037422;23;92948;-76
2023/02/28 05:11:16;;;;;;;6.20;5.60;;;5.90;99.90;;;;;;6036103;23;92400;-76
2023/02/28 05:13:43;;;;;;;8.32;5.43;;;5.90;99.90;;;;;;6037721;23;92338;-76
2023/02/28 05:16:10;;;;;;;7.35;6.03;;;5.90;99.90;;;;;;5988741;23;93228;-76
2023/02/28 05:18:38;;;;;;;8.45;5.53;;;5.90;99.90;;;;;;6037547;23;92866;-76
2023/02/28 05:21:05;;;;;;;10.60;6.55;;;5.90;99.90;;;;;;6037993;23;92388;-76
2023/02/28 05:23:32;;;;;;;7.93;5.82;;;5.90;99.90;;;;;;6012546;23;92821;-76
2023/02/28 05:25:59;;;;;;;12.07;7.18;;;5.80;99.90;;;;;;6009795;23;98005;-76
2023/02/28 05:28:26;;;;;;;9.68;6.35;;;5.80;99.90;;;;;;6037479;23;94010;-76
2023/02/28 05:30:53;;;;;;;10.70;7.97;;;5.80;99.90;;;;;;6012176;23;92434;-76
2023/02/28 05:33:20;;;;;;;10.23;6.18;;;5.80;99.90;;;;;;6037878;23;92719;-76
2023/02/28 05:35:47;;;;;;;7.47;6.50;;;5.80;99.90;;;;;;6037295;23;93315;-76
2023/02/28 05:38:14;;;;;;;11.38;6.55;;;5.70;99.90;;;;;;6037472;23;92976;-76
2023/02/28 05:40:41;;;;;;;9.48;6.18;;;5.70;99.90;;;;;;6037278;23;93102;-76
2023/02/28 05:43:11;;;;;;;9.95;6.90;;;5.70;99.90;;;;;;6012338;23;92304;-76
2023/02/28 05:45:38;;;;;;;9.32;5.90;;;5.70;99.90;;;;;;6012071;23;93292;-76
2023/02/28 05:48:05;;;;;;;13.02;6.97;;;5.70;99.90;;;;;;6036112;23;93098;-76
2023/02/28 05:50:32;;;;;;;10.48;7.30;;;5.60;99.90;;;;;;6034848;23;94962;-76
2023/02/28 05:52:59;;;;;;;8.85;6.57;;;5.60;99.90;;;;;;6035782;23;92434;-76
2023/02/28 05:55:26;;;;;;;13.63;7.47;;;5.60;99.90;;;;;;5987819;23;95961;-76
2023/02/28 05:57:53;;;;;;;9.38;7.10;;;5.60;99.90;;;;;;6037325;23;93020;-76
2023/02/28 06:00:20;;;;;;;12.48;7.32;;;5.50;99.90;;;;;;6012422;23;92333;-76
2023/02/28 06:02:47;;;;;;;11.82;7.22;;;5.50;99.90;;;;;;6011675;23;96699;-76
2023/02/28 06:05:17;;;;;;;11.40;7.38;;;5.50;99.90;;;;;;6011930;23;93226;-76
2023/02/28 06:07:44;;;;;;;12.20;8.05;;;5.50;99.90;;;;;;6037652;23;93088;-76
2023/02/28 06:10:12;;;;;;;11.85;7.25;;;5.50;99.90;;;;;;6011876;23;92567;-76
2023/02/28 06:12:41;;;;;;;12.93;8.10;;;5.50;99.90;;;;;;6036198;23;92456;-76
2023/02/28 06:15:12;;;;;;;10.95;7.63;;;5.50;99.90;;;;;;6009865;23;96813;-76
2023/02/28 06:17:43;;;;;;;12.25;8.75;;;5.50;99.90;;;;;;6060140;23;97150;-76
2023/02/28 06:20:15;;;;;;;14.63;8.20;;;5.40;99.90;;;;;;6037225;23;92405;-76
2023/02/28 06:22:42;;;;;;;12.10;7.97;;;5.40;99.90;;;;;;6012174;23;92470;-76
2023/02/28 06:25:10;;;;;;;10.90;7.85;;;5.40;99.90;;;;;;6011696;23;93106;-76
2023/02/28 06:27:37;;;;;;;15.73;9.40;;;5.50;99.90;;;;;;6037588;23;93068;-76
2023/02/28 06:30:04;;;;;;;13.05;8.25;;;5.50;99.90;;;;;;5988157;23;92469;-76
2023/02/28 06:32:31;;;;;;;13.57;8.70;;;5.50;99.90;;;;;;6012557;23;91692;-76
2023/02/28 06:34:58;;;;;;;9.95;8.02;;;5.50;99.90;;;;;;6035260;23;94149;-76
2023/02/28 06:37:28;;;;;;;12.85;7.78;;;5.60;99.90;;;;;;6011412;23;95606;-76
2023/02/28 06:39:55;;;;;;;11.85;8.63;;;5.60;99.90;;;;;;5985999;23;94888;-76
2023/02/28 06:42:28;;;;;;;11.00;8.50;;;5.60;99.90;;;;;;6011557;23;92493;-76
2023/02/28 06:44:56;;;;;;;12.82;8.27;;;5.60;99.90;;;;;;6037050;23;93223;-76
2023/02/28 06:47:23;;;;;;;12.32;8.30;;;5.60;99.90;;;;;;6011628;23;95516;-76
2023/02/28 06:49:50;;;;;;;14.52;8.38;;;5.60;99.90;;;;;;6011835;23;92431;-76
2023/02/28 06:52:18;;;;;;;12.30;9.07;;;5.70;99.90;;;;;;5988112;23;92466;-76
2023/02/28 06:54:44;;;;;;;13.02;7.63;;;5.70;99.90;;;;;;5987707;23;95920;-76
2023/02/28 06:57:11;;;;;;;12.13;7.50;;;5.70;99.90;;;;;;6011548;23;95626;-76
2023/02/28 06:59:38;;;;;;;9.90;7.78;;;5.70;99.90;;;;;;6011599;23;92426;-76
2023/02/28 07:02:06;;;;;;;14.70;8.10;;;5.80;99.90;;;;;;6011338;23;92443;-76
2023/02/28 07:04:33;;;;;;;9.85;7.35;;;5.90;99.90;;;;;;6035768;23;95561;-76
2023/02/28 07:07:00;;;;;;;10.20;7.03;;;5.90;99.90;;;;;;6036004;23;100810;-76
2023/02/28 07:09:29;;;;;;;11.82;7.88;;;6.00;99.90;;;;;;6037461;23;92340;-76
2023/02/28 07:11:56;;;;;;;12.30;8.40;;;6.10;99.90;;;;;;6059464;23;92397;-76
2023/02/28 07:14:23;;;;;;;12.98;8.18;;;6.20;99.90;;;;;;6011683;23;93408;-76
2023/02/28 07:16:50;;;;;;;11.45;8.55;;;6.30;99.90;;;;;;6011273;23;95650;-76
2023/02/28 07:19:17;;;;;;;11.88;8.45;;;6.50;99.90;;;;;;6011524;23;92944;-76
2023/02/28 07:21:45;;;;;;;11.13;7.45;;;6.60;99.90;;;;;;6036254;23;91722;-76
2023/02/28 07:24:11;;;;;;;10.05;7.65;;;6.70;99.90;;;;;;6036774;23;93267;-76
2023/02/28 07:26:38;;;;;;;11.48;8.15;;;6.80;99.90;;;;;;6011007;23;95511;-76
2023/02/28 07:29:05;;;;;;;9.00;7.32;;;6.90;99.90;;;;;;6010443;23;95500;-76
2023/02/28 07:31:32;;;;;;;10.68;7.80;;;7.00;99.90;;;;;;6011988;23;92641;-76
2023/02/28 07:34:00;;;;;;;10.18;6.85;;;7.10;99.90;;;;;;6034764;23;102583;-76
2023/02/28 07:36:26;;;;;;;10.07;7.65;;;7.20;99.90;;;;;;6037061;23;92955;-76
2023/02/28 07:38:53;;;;;;;10.45;7.65;;;7.40;99.90;;;;;;6037517;23;92452;-76
2023/02/28 07:41:22;;;;;;;11.43;7.68;;;7.50;99.90;;;;;;6011349;23;92459;-76
2023/02/28 07:43:50;;;;;;;11.55;8.13;;;7.60;99.90;;;;;;6035098;23;94543;-76
2023/02/28 07:46:20;;;;;;;14.98;8.10;;;7.70;99.90;;;;;;5988441;23;92993;-76
2023/02/28 07:48:47;;;;;;;8.80;7.43;;;7.70;99.90;;;;;;6037408;23;92819;-76
2023/02/28 07:51:14;;;;;;;11.38;7.80;;;7.80;99.90;;;;;;6011541;23;92414;-76
2023/02/28 07:53:41;;;;;;;12.63;8.43;;;7.80;99.90;;;;;;5985873;23;98108;-76
2023/02/28 07:56:09;;;;;;;11.40;7.35;;;7.90;99.90;;;;;;6010705;23;98194;-76
2023/02/28 07:58:37;;;;;;;13.23;8.38;;;7.90;99.90;;;;;;6011274;23;92388;-76
2023/02/28 08:01:08;;;;;;;9.75;8.32;;;8.00;99.90;;;;;;6036906;23;92411;-76
2023/02/28 08:03:36;;;;;;;11.18;8.27;;;8.10;99.90;;;;;;6037057;23;93330;-76
2023/02/28 08:06:05;;;;;;;12.75;8.63;;;8.10;99.90;;;;;;6011370;23;93040;-77
2023/02/28 08:08:32;;;;;;;11.27;8.38;;;8.10;99.90;;;;;;6011706;23;92448;-77
2023/02/28 08:11:02;;;;;;;10.85;8.38;;;8.10;99.90;;;;;;5987648;23;91798;-77
2023/02/28 08:13:29;;;;;;;11.13;8.27;;;8.10;99.90;;;;;;6036904;23;93816;-77
2023/02/28 08:15:57;;;;;;;11.38;8.63;;;8.10;99.90;;;;;;6010872;23;95638;-77
2023/02/28 08:18:24;;;;;;;11.93;8.80;;;8.10;99.90;;;;;;6035409;23;94784;-77
2023/02/28 08:20:51;;;;;;;12.93;8.70;;;8.20;99.90;;;;;;6011142;23;92758;-77
2023/02/28 08:23:18;;;;;;;11.52;8.13;;;8.30;99.90;;;;;;5986996;23;94251;-77
2023/02/28 08:25:54;;;;;;;10.27;7.68;;;8.30;99.90;;;;;;6010831;23;95401;-77
2023/02/28 08:28:22;;;;;;;12.73;8.77;;;8.40;99.90;;;;;;6011581;23;92387;-77
2023/02/28 08:30:50;;;;;;;12.95;8.52;;;8.40;99.90;;;;;;6036908;23;92389;-77
2023/02/28 08:33:17;;;;;;;11.98;9.35;;;8.40;99.90;;;;;;6010246;23;104473;-77
2023/02/28 08:35:44;;;;;;;13.25;9.35;;;8.40;99.90;;;;;;5988170;23;92810;-77
2023/02/28 08:38:11;;;;;;;10.05;8.15;;;8.50;99.90;;;;;;6035270;23;92436;-77
2023/02/28 08:40:38;;;;;;;13.15;9.43;;;8.80;99.90;;;;;;6010989;23;92508;-77
2023/02/28 08:43:05;;;;;;;11.70;9.57;;;9.00;99.90;;;;;;6009022;23;96662;-77
2023/02/28 08:45:32;;;;;;;12.18;8.77;;;9.20;99.90;;;;;;6010695;23;96984;-77
2023/02/28 08:47:59;;;;;;;11.73;8.73;;;9.30;99.90;;;;;;6010978;23;92495;-77
2023/02/28 08:50:26;;;;;;;12.93;9.40;;;9.20;99.90;;;;;;6036510;23;92456;-77
2023/02/28 08:52:53;;;;;;;12.70;9.38;;;9.10;99.90;;;;;;6034879;23;95944;-77
2023/02/28 08:55:20;;;;;;;15.50;10.38;;;8.90;99.90;;;;;;6010531;23;95488;-77
2023/02/28 08:57:47;;;;;;;12.40;9.48;;;8.80;99.90;;;;;;6010741;23;92327;-77
2023/02/28 09:00:14;;;;;;;12.10;9.52;;;8.80;99.90;;;;;;6011111;23;91729;-77
2023/02/28 09:02:43;;;;;;;11.63;9.15;;;8.70;99.90;;;;;;6010423;23;95817;-77
2023/02/28 09:05:10;;;;;;;9.45;8.48;;;8.50;99.90;;;;;;6034812;23;92922;-77
2023/02/28 09:07:37;;;;;;;11.63;9.57;;;8.50;99.90;;;;;;6009736;23;94748;-77
2023/02/28 09:10:04;;;;;;;10.52;9.43;;;8.50;99.90;;;;;;5987071;23;92452;-77
2023/02/28 09:12:34;;;;;;;13.45;9.45;;;8.40;99.90;;;;;;6036108;23;93799;-77
2023/02/28 09:15:02;;;;;;;12.13;8.82;;;8.40;99.90;;;;;;6010908;23;92943;-77
2023/02/28 09:17:29;;;;;;;10.40;8.38;;;8.40;99.90;;;;;;6036386;23;92753;-77
2023/02/28 09:19:57;;;;;;;12.90;9.77;;;8.30;99.90;;;;;;6010584;23;92437;-77
2023/02/28 09:22:24;;;;;;;11.10;8.90;;;8.30;99.90;;;;;;5986490;23;95775;-77
2023/02/28 09:24:51;;;;;;;15.68;9.95;;;8.20;99.90;;;;;;6035270;23;92839;-77
2023/02/28 09:27:18;;;;;;;13.02;8.93;;;8.20;99.90;;;;;;5986553;23;92408;-77
2023/02/28 09:29:45;;;;;;;11.70;8.77;;;8.30;99.90;;;;;;6010456;23;100125;-77
2023/02/28 09:32:12;;;;;;;16.05;9.30;;;8.40;99.90;;;;;;6009971;23;98263;-77
2023/02/28 09:34:39;;;;;;;8.82;7.93;;;8.40;99.90;;;;;;6011096;23;95309;-77
2023/02/28 09:37:06;;;;;;;10.18;7.47;;;8.50;99.90;;;;;;6037796;23;92375;-77
2023/02/28 09:39:33;;;;;;;9.57;7.57;;;8.50;99.90;;;;;;6037504;23;92403;-77
2023/02/28 09:42:03;;;;;;;11.43;7.05;;;8.60;99.90;;;;;;6037641;23;93216;-76
2023/02/28 09:44:44;;;;;;;8.48;6.75;;;8.70;99.90;;;;;;6037260;23;92836;-76
2023/02/28 09:47:32;;;;;;;11.05;6.90;;;8.60;99.90;;;;;;6037737;23;92397;-77
2023/02/28 09:50:23;;;;;;;7.78;6.15;;;8.70;99.90;;;;;;6038301;23;91619;-77
2023/02/28 09:52:50;;;;;;;8.30;5.75;;;8.60;99.90;;;;;;6012260;23;93118;-77
2023/02/28 09:55:59;;;;;;;7.57;6.63;;;8.80;99.90;;;;;;6035467;23;95559;-77
2023/02/28 09:58:44;;;;;;;8.30;7.28;;;9.20;99.90;;;;;;5947482;23;94898;-77
2023/02/28 10:01:34;;;;;;;5.68;4.75;;;9.50;99.90;;;;;;6035084;23;92409;-77
2023/02/28 10:04:29;;;;;;;7.53;4.80;;;9.80;99.90;;;;;;6037500;23;93384;-77
2023/02/28 10:06:57;;;;;;;5.63;4.10;;;10.00;99.90;;;;;;6015977;23;93057;-77
2023/02/28 10:09:33;;;;;;;5.53;3.05;;;10.10;99.60;;;;;;6037454;23;92932;-77
2023/02/28 10:12:04;;;;;;;7.93;5.65;;;10.20;98.60;;;;;;6037902;23;93147;-77
2023/02/28 10:14:34;;;;;;;6.35;4.00;;;10.20;99.10;;;;;;6037292;23;93212;-77
2023/02/28 10:17:21;;;;;;;4.75;3.67;;;10.10;97.20;;;;;;6037805;23;92786;-77
2023/02/28 10:20:00;;;;;;;7.05;4.65;;;9.90;97.10;;;;;;6037535;23;92920;-77
2023/02/28 10:22:50;;;;;;;5.72;4.90;;;9.80;97.70;;;;;;6037425;23;92541;-77
2023/02/28 10:25:24;;;;;;;6.00;4.50;;;9.70;97.10;;;;;;6035646;23;95666;-77
2023/02/28 10:28:20;;;;;;;7.10;5.05;;;9.50;98.00;;;;;;6011622;23;97570;-77
2023/02/28 10:30:50;;;;;;;7.07;5.22;;;9.50;97.30;;;;;;6007938;23;92666;-77
2023/02/28 10:33:22;;;;;;;6.57;5.88;;;9.40;97.60;;;;;;6037737;23;93292;-77
2023/02/28 10:35:51;;;;;;;8.05;6.00;;;9.30;98.30;;;;;;6037243;23;93269;-77
2023/02/28 10:38:36;;;;;;;7.97;6.38;;;9.30;98.90;;;;;;6037180;23;92433;-77
2023/02/28 10:41:27;;;;;;;6.50;5.90;;;9.40;99.00;;;;;;6037163;23;92389;-77
2023/02/28 10:44:23;;;;;;;8.05;6.07;;;9.50;99.10;;;;;;6036774;23;91618;-77
2023/02/28 10:46:51;;;;;;;7.90;5.78;;;9.50;98.70;;;;;;6035638;23;95749;-77
2023/02/28 10:49:25;;;;;;;8.13;6.35;;;9.50;98.80;;;;;;6084422;23;95645;-77
2023/02/28 10:51:56;;;;;;;6.55;5.72;;;9.60;98.40;;;;;;6036104;23;94880;-77
2023/02/28 10:54:35;;;;;;;6.20;5.60;;;9.60;98.40;;;;;;6037352;23;92838;-77
2023/02/28 10:57:24;;;;;;;6.97;5.80;;;9.50;97.70;;;;;;6036846;23;93143;-77
2023/02/28 11:00:05;;;;;;;6.85;5.15;;;9.50;97.70;;;;;;6037350;23;93015;-77
2023/02/28 11:02:37;;;;;;;8.70;5.93;;;9.40;97.60;;;;;;6060084;23;92337;-77
2023/02/28 11:05:24;;;;;;;6.90;5.82;;;9.40;98.00;;;;;;6084917;23;92434;-77
2023/02/28 11:07:56;;;;;;;8.00;6.05;;;9.60;97.90;;;;;;6059516;23;94396;-77
2023/02/28 11:10:28;;;;;;;7.25;6.05;;;9.70;98.00;;;;;;6084758;23;95514;-77
2023/02/28 11:12:57;;;;;;;8.40;6.00;;;9.80;98.00;;;;;;6037762;23;92446;-77
2023/02/28 11:15:34;;;;;;;7.35;5.70;;;10.00;97.90;;;;;;6037147;23;92339;-77
2023/02/28 11:18:12;;;;;;;7.78;5.88;;;10.10;97.30;;;;;;6035611;23;95502;-77
2023/02/28 11:20:40;;;;;;;6.65;5.47;;;10.20;97.30;;;;;;6062041;23;95369;-77
2023/02/28 11:23:13;;;;;;;7.70;5.30;;;10.40;97.10;;;;;;6089319;23;92502;-76
2023/02/28 11:25:46;;;;;;;5.47;4.43;;;10.40;96.10;;;;;;6066320;23;92452;-76
2023/02/28 11:28:35;;;;;;;6.40;4.60;;;10.30;96.40;;;;;;6088898;23;93368;-77
2023/02/28 11:31:04;;;;;;;4.97;4.28;;;10.20;96.20;;;;;;6040156;23;95506;-77
2023/02/28 11:33:44;;;;;;;5.07;4.60;;;10.00;95.90;;;;;;6088840;23;92942;-76
2023/02/28 11:36:27;;;;;;;4.72;4.32;;;10.10;96.50;;;;;;6067183;23;92195;-77
2023/02/28 11:39:01;;;;;;;5.60;4.40;;;10.30;96.10;;;;;;6064423;23;95641;-77
2023/02/28 11:41:31;;;;;;;5.90;4.85;;;10.40;94.90;;;;;;6066142;23;93384;-77
2023/02/28 11:44:23;;;;;;;5.55;4.60;;;10.40;95.10;;;;;;6087947;23;95418;-77
2023/02/28 11:47:00;;;;;;;5.05;4.28;;;10.50;94.60;;;;;;6039977;23;92546;-77
2023/02/28 11:49:42;;;;;;;7.43;5.15;;;10.50;94.50;;;;;;6088800;23;95900;-77
2023/02/28 11:52:21;;;;;;;6.28;5.53;;;10.60;95.10;;;;;;6039681;23;95480;-76
2023/02/28 11:55:00;;;;;;;5.90;5.30;;;10.70;94.60;;;;;;6066070;23;92310;-76
2023/02/28 11:57:55;;;;;;;4.80;4.40;;;10.70;94.50;;;;;;6089161;23;92294;-76
2023/02/28 12:00:40;;;;;;;5.80;4.90;;;10.80;94.10;;;;;;6066114;23;93364;-77
2023/02/28 12:03:22;;;;;;;6.07;5.30;;;10.70;93.80;;;;;;6066523;23;92932;-77
2023/02/28 12:06:08;;;;;;;5.57;4.80;;;10.90;93.60;;;;;;6066083;23;92285;-76
2023/02/28 12:08:35;;;;;;;6.55;5.65;;;11.10;93.60;;;;;;6039970;23;92416;-76
2023/02/28 12:11:28;;;;;;;6.47;5.13;;;11.20;93.10;;;;;;6064647;23;95549;-76
2023/02/28 12:14:21;;;;;;;6.03;4.95;;;11.40;93.10;;;;;;6036334;23;95337;-76
2023/02/28 12:16:56;;;;;;;5.25;3.90;;;11.40;92.70;;;;;;6064468;23;92451;-77
2023/02/28 12:19:38;;;;;;;6.63;5.10;;;11.20;92.50;;;;;;6065872;23;92317;-77
2023/02/28 12:22:32;;;;;;;6.07;4.50;;;11.10;93.10;;;;;;6066143;23;93795;-77
2023/02/28 12:25:23;;;;;;;4.95;4.55;;;11.00;93.30;;;;;;6088780;23;93194;-76
2023/02/28 12:27:53;;;;;;;5.93;5.07;;;11.00;93.60;;;;;;6057973;23;92481;-76
2023/02/28 12:30:25;;;;;;;5.28;4.47;;;11.00;93.80;;;;;;6088907;23;91729;-76
2023/02/28 12:33:14;;;;;;;6.00;5.18;;;11.10;93.30;;;;;;6063785;23;95670;-76
2023/02/28 12:35:55;;;;;;;6.78;5.38;;;11.30;92.60;;;;;;6065611;23;92905;-76
2023/02/28 12:38:31;;;;;;;5.50;4.95;;;11.30;92.60;;;;;;6064729;23;94843;-76
2023/02/28 12:41:07;;;;;;;6.18;4.03;;;11.20;92.80;;;;;;6064164;23;92503;-76
2023/02/28 12:43:40;;;;;;;4.63;4.22;;;11.30;92.20;;;;;;6064140;23;93300;-76
2023/02/28 12:46:25;;;;;;;7.03;4.97;;;11.20;92.10;;;;;;6088509;23;95364;-76
2023/02/28 12:49:21;;;;;;;5.15;4.65;;;11.10;92.50;;;;;;6065645;23;92344;-76
2023/02/28 12:51:50;;;;;;;6.50;4.78;;;11.00;92.30;;;;;;6040314;23;92497;-76
2023/02/28 12:54:32;;;;;;;6.70;4.57;;;10.80;92.50;;;;;;6063713;23;95621;-76
2023/02/28 12:57:16;;;;;;;4.75;4.07;;;10.70;92.80;;;;;;6064359;23;92759;-76
2023/02/28 12:59:49;;;;;;;;;;;10.60;92.30;;;;;;6066186;23;92791;-76
2023/02/28 13:02:39;;;;;;;5.10;4.70;;;10.50;92.30;;;;;;6067465;23;92380;-77
2023/02/28 13:05:27;;;;;;;7.50;5.07;;;10.40;92.70;;;;;;6064654;23;95710;-77
2023/02/28 13:08:02;;;;;;;5.10;4.60;;;10.50;92.70;;;;;;6040249;23;97827;-77
2023/02/28 13:10:46;;;;;;;4.55;4.15;;;10.40;92.80;;;;;;6089886;23;92341;-77
2023/02/28 13:13:19;;;;;;;5.85;4.85;;;10.30;92.60;;;;;;6065304;23;92455;-77
2023/02/28 13:16:07;;;;;;;5.22;4.72;;;10.30;93.10;;;;;;6089432;23;92438;-76
2023/02/28 13:18:39;;;;;;;5.32;4.32;;;10.30;92.50;;;;;;6064944;23;92968;-76
2023/02/28 13:21:24;;;;;;;5.25;3.83;;;10.20;92.00;;;;;;6067142;23;92401;-76
2023/02/28 13:23:55;;;;;;;5.28;3.72;;;10.10;91.70;;;;;;6067243;23;91718;-76